createdAt,value
2017-11-13T00:01:45.635Z,21.43
2017-11-13T00:04:13.032Z,19.50
2017-11-13T00:06:40.425Z,19.47
2017-11-13T00:09:07.803Z,18.80
2017-11-13T00:11:35.199Z,18.73
2017-11-13T00:14:02.627Z,20.03
2017-11-13T00:16:30.015Z,19.37
2017-11-13T00:18:57.395Z,18.60
2017-11-13T00:21:24.788Z,19.87
2017-11-13T00:23:52.171Z,18.23
2017-11-13T00:26:19.567Z,20.80
2017-11-13T00:28:46.960Z,20.73
2017-11-13T00:31:14.342Z,20.87
2017-11-13T00:33:41.737Z,20.47
2017-11-13T00:36:09.123Z,19.87
2017-11-13T00:38:36.513Z,18.93
2017-11-13T00:41:03.898Z,20.93
2017-11-13T00:43:31.297Z,19.63
2017-11-13T00:45:58.680Z,19.63
2017-11-13T00:48:26.108Z,19.47
2017-11-13T00:50:53.495Z,20.40
2017-11-13T00:53:20.881Z,21.73
2017-11-13T00:55:48.284Z,21.60
2017-11-13T00:58:15.669Z,21.63
2017-11-13T01:00:43.071Z,21.20
2017-11-13T01:03:10.460Z,23.30
2017-11-13T01:05:37.852Z,23.63
2017-11-13T01:08:05.243Z,23.03
2017-11-13T01:10:32.663Z,23.57
2017-11-13T01:13:00.050Z,22.93
2017-11-13T01:15:27.431Z,23.67
2017-11-13T01:17:54.824Z,22.40
2017-11-13T01:20:22.212Z,23.53
2017-11-13T01:22:49.602Z,22.43
2017-11-13T01:25:16.983Z,21.03
2017-11-13T01:27:44.384Z,22.60
2017-11-13T01:30:11.778Z,21.10
2017-11-13T01:32:39.171Z,18.97
2017-11-13T01:35:06.558Z,17.97
2017-11-13T01:37:33.946Z,16.60
2017-11-13T01:40:01.332Z,16.13
2017-11-13T01:42:28.723Z,16.00
2017-11-13T01:44:56.113Z,15.03
2017-11-13T01:47:23.511Z,14.80
2017-11-13T01:49:50.904Z,15.47
2017-11-13T01:52:18.291Z,14.67
2017-11-13T01:54:45.687Z,15.03
2017-11-13T01:57:13.080Z,14.60
2017-11-13T01:59:40.467Z,14.43
2017-11-13T02:02:07.855Z,13.40
2017-11-13T02:04:35.251Z,15.00
2017-11-13T02:07:02.638Z,14.20
2017-11-13T02:09:30.023Z,14.20
2017-11-13T02:11:57.423Z,14.50
2017-11-13T02:14:24.804Z,14.53
2017-11-13T02:16:52.232Z,15.17
2017-11-13T02:19:19.596Z,15.27
2017-11-13T02:21:46.988Z,14.50
2017-11-13T02:24:14.385Z,14.60
2017-11-13T02:26:41.767Z,14.57
2017-11-13T02:29:09.158Z,14.23
2017-11-13T02:31:36.546Z,14.23
2017-11-13T02:34:03.939Z,13.33
2017-11-13T02:36:31.323Z,13.80
2017-11-13T02:38:58.719Z,13.67
2017-11-13T02:41:26.107Z,14.97
2017-11-13T02:43:53.513Z,13.83
2017-11-13T02:46:20.908Z,15.33
2017-11-13T02:48:48.311Z,13.85
2017-11-13T02:51:15.695Z,14.40
2017-11-13T02:53:43.084Z,14.03
2017-11-13T02:56:10.476Z,14.20
2017-11-13T02:58:37.864Z,14.23
2017-11-13T03:01:05.265Z,13.90
2017-11-13T03:03:32.648Z,13.50
2017-11-13T03:06:00.035Z,14.03
2017-11-13T03:08:27.424Z,13.63
2017-11-13T03:10:54.811Z,12.90
2017-11-13T03:13:22.207Z,13.10
2017-11-13T03:15:49.594Z,12.93
2017-11-13T03:18:16.979Z,13.13
2017-11-13T03:20:44.363Z,12.97
2017-11-13T03:23:11.772Z,13.33
2017-11-13T03:25:39.160Z,12.30
2017-11-13T03:28:06.543Z,12.73
2017-11-13T03:30:33.946Z,13.37
2017-11-13T03:33:01.327Z,12.93
2017-11-13T03:35:28.723Z,13.27
2017-11-13T03:37:56.121Z,12.80
2017-11-13T03:40:23.507Z,12.87
2017-11-13T03:42:50.900Z,13.03
2017-11-13T03:45:18.296Z,13.23
2017-11-13T03:47:45.696Z,13.17
2017-11-13T03:50:13.071Z,13.60
2017-11-13T03:52:40.468Z,12.57
2017-11-13T03:55:07.855Z,12.60
2017-11-13T03:57:35.263Z,14.13
2017-11-13T04:00:02.659Z,12.43
2017-11-13T04:02:30.057Z,11.50
2017-11-13T04:04:57.444Z,13.00
2017-11-13T04:07:24.854Z,11.67
2017-11-13T04:09:52.239Z,12.00
2017-11-13T04:12:19.628Z,11.60
2017-11-13T04:14:47.049Z,11.80
2017-11-13T04:17:14.407Z,11.40
2017-11-13T04:19:41.811Z,11.50
2017-11-13T04:22:09.204Z,11.90
2017-11-13T04:24:36.599Z,11.73
2017-11-13T04:27:03.995Z,11.97
2017-11-13T04:29:31.403Z,11.33
2017-11-13T04:31:58.800Z,11.80
2017-11-13T04:34:26.183Z,11.80
2017-11-13T04:36:53.580Z,11.00
2017-11-13T04:39:20.991Z,11.50
2017-11-13T04:41:48.396Z,11.90
2017-11-13T04:44:15.786Z,12.00
2017-11-13T04:46:43.192Z,11.60
2017-11-13T04:49:10.604Z,12.50
2017-11-13T04:51:38.022Z,11.20
2017-11-13T04:54:05.416Z,12.07
2017-11-13T04:56:32.803Z,11.03
2017-11-13T04:59:00.932Z,10.80
2017-11-13T05:01:28.335Z,10.70
2017-11-13T05:03:55.731Z,10.67
2017-11-13T05:06:23.139Z,11.20
2017-11-13T05:08:50.539Z,10.40
2017-11-13T05:11:17.931Z,11.30
2017-11-13T05:13:45.382Z,11.60
2017-11-13T05:16:12.763Z,10.70
2017-11-13T05:18:40.185Z,11.07
2017-11-13T05:21:07.820Z,10.53
2017-11-13T05:23:35.215Z,10.73
2017-11-13T05:26:02.647Z,10.77
2017-11-13T05:28:30.030Z,10.53
2017-11-13T05:30:57.423Z,10.40
2017-11-13T05:33:24.820Z,10.60
2017-11-13T05:35:52.209Z,11.57
2017-11-13T05:38:19.606Z,10.27
2017-11-13T05:40:46.996Z,10.37
2017-11-13T05:43:14.391Z,10.10
2017-11-13T05:45:41.844Z,10.47
2017-11-13T05:48:09.244Z,10.50
2017-11-13T05:50:36.630Z,11.07
2017-11-13T05:53:04.020Z,11.17
2017-11-13T05:55:31.412Z,11.40
2017-11-13T05:57:58.807Z,11.13
2017-11-13T06:00:26.217Z,10.20
2017-11-13T06:02:53.604Z,10.37
2017-11-13T06:05:21.009Z,10.20
2017-11-13T06:07:48.394Z,10.20
2017-11-13T06:10:15.826Z,9.97
2017-11-13T06:12:43.224Z,12.00
2017-11-13T06:15:10.623Z,10.67
2017-11-13T06:17:38.024Z,10.20
2017-11-13T06:20:05.408Z,9.73
2017-11-13T06:22:32.807Z,10.17
2017-11-13T06:25:00.200Z,9.57
2017-11-13T06:27:27.603Z,10.70
2017-11-13T06:29:55.012Z,10.00
2017-11-13T06:32:22.415Z,10.07
2017-11-13T06:34:49.810Z,10.00
2017-11-13T06:37:17.196Z,9.90
2017-11-13T06:39:44.583Z,9.80
2017-11-13T06:42:11.978Z,9.43
2017-11-13T06:44:39.371Z,9.30
2017-11-13T06:47:06.743Z,8.50
2017-11-13T06:49:34.583Z,9.43
2017-11-13T06:52:01.998Z,10.20
2017-11-13T06:54:29.395Z,9.93
2017-11-13T06:56:56.783Z,10.47
2017-11-13T06:59:24.163Z,9.63
2017-11-13T07:01:51.561Z,9.87
2017-11-13T07:04:18.955Z,10.40
2017-11-13T07:06:46.352Z,10.40
2017-11-13T07:09:13.753Z,11.17
2017-11-13T07:11:41.156Z,10.30
2017-11-13T07:14:08.552Z,10.10
2017-11-13T07:16:35.940Z,10.57
2017-11-13T07:19:03.345Z,9.93
2017-11-13T07:21:30.735Z,10.30
2017-11-13T07:23:58.128Z,9.57
2017-11-13T07:26:25.515Z,9.77
2017-11-13T07:28:52.912Z,9.07
2017-11-13T07:31:20.307Z,9.80
2017-11-13T07:33:47.719Z,10.13
2017-11-13T07:36:15.099Z,9.93
2017-11-13T07:38:42.492Z,10.97
2017-11-13T07:41:09.892Z,10.80
2017-11-13T07:43:37.284Z,11.03
2017-11-13T07:46:04.680Z,10.43
2017-11-13T07:48:32.076Z,10.60
2017-11-13T07:50:59.488Z,10.53
2017-11-13T07:53:26.880Z,10.60
2017-11-13T07:55:54.267Z,11.77
2017-11-13T07:58:21.782Z,12.10
2017-11-13T08:00:49.155Z,11.93
2017-11-13T08:03:16.553Z,13.27
2017-11-13T08:05:43.947Z,11.23
2017-11-13T08:08:11.340Z,12.33
2017-11-13T08:10:38.731Z,13.13
2017-11-13T08:13:06.136Z,12.60
2017-11-13T08:15:33.527Z,12.93
2017-11-13T08:18:00.948Z,13.33
2017-11-13T08:20:28.335Z,13.23
2017-11-13T08:22:55.734Z,14.10
2017-11-13T08:25:23.119Z,14.10
2017-11-13T08:27:50.511Z,12.77
2017-11-13T08:30:17.912Z,13.50
2017-11-13T08:32:45.304Z,13.33
2017-11-13T08:35:12.704Z,14.10
2017-11-13T08:37:40.096Z,13.70
2017-11-13T08:40:07.495Z,14.13
2017-11-13T08:42:34.898Z,13.90
2017-11-13T08:45:02.282Z,14.33
2017-11-13T08:47:29.689Z,13.77
2017-11-13T08:49:57.067Z,14.27
2017-11-13T08:52:24.463Z,13.20
2017-11-13T08:54:51.852Z,12.87
2017-11-13T08:57:19.271Z,14.00
2017-11-13T08:59:46.663Z,14.07
2017-11-13T09:02:14.051Z,14.00
2017-11-13T09:04:41.453Z,13.40
2017-11-13T09:07:08.847Z,13.03
2017-11-13T09:09:36.252Z,15.37
2017-11-13T09:12:04.308Z,14.23
2017-11-13T09:14:31.700Z,13.03
2017-11-13T09:16:59.098Z,12.60
2017-11-13T09:19:26.483Z,13.50
2017-11-13T09:21:53.875Z,13.80
2017-11-13T09:24:21.263Z,16.20
2017-11-13T09:26:48.655Z,17.93
2017-11-13T09:29:16.048Z,16.13
2017-11-13T09:31:43.456Z,14.20
2017-11-13T09:34:10.853Z,14.20
2017-11-13T09:36:38.240Z,12.30
2017-11-13T09:39:05.640Z,12.33
2017-11-13T09:41:33.037Z,12.60
2017-11-13T09:44:00.436Z,12.30
2017-11-13T09:46:27.823Z,11.67
2017-11-13T09:48:55.228Z,12.47
2017-11-13T09:51:22.620Z,12.03
2017-11-13T09:53:50.015Z,11.17
2017-11-13T09:56:17.410Z,11.80
2017-11-13T09:58:44.801Z,13.00
2017-11-13T10:01:12.200Z,13.27
2017-11-13T10:03:39.622Z,12.93
2017-11-13T10:06:07.053Z,14.27
2017-11-13T10:08:34.444Z,12.90
2017-11-13T10:11:01.836Z,12.63
2017-11-13T10:13:29.228Z,13.23
2017-11-13T10:15:56.627Z,13.20
2017-11-13T10:18:24.029Z,15.70
2017-11-13T10:20:51.415Z,15.10
2017-11-13T10:23:18.815Z,13.53
2017-11-13T10:25:46.210Z,13.47
2017-11-13T10:28:13.788Z,13.80
2017-11-13T10:30:41.175Z,14.40
2017-11-13T10:33:08.563Z,12.90
2017-11-13T10:35:35.999Z,13.70
2017-11-13T10:38:03.370Z,13.93
2017-11-13T10:40:30.771Z,13.50
2017-11-13T10:42:58.170Z,12.60
2017-11-13T10:45:25.571Z,12.63
2017-11-13T10:47:52.965Z,11.70
2017-11-13T10:50:20.382Z,10.77
2017-11-13T10:52:47.762Z,12.43
2017-11-13T10:55:15.155Z,13.53
2017-11-13T10:57:42.560Z,12.20
2017-11-13T11:00:09.957Z,12.50
2017-11-13T11:02:37.352Z,11.10
2017-11-13T11:05:04.747Z,11.00
2017-11-13T11:07:32.162Z,11.10
2017-11-13T11:09:59.573Z,10.47
2017-11-13T11:12:31.413Z,9.80
2017-11-13T11:18:13.080Z,10.13
2017-11-13T11:20:40.476Z,12.30
2017-11-13T11:23:11.316Z,10.73
2017-11-13T11:29:04.180Z,11.90
2017-11-13T11:31:33.356Z,10.90
2017-11-13T11:34:00.756Z,11.07
2017-11-13T11:36:29.063Z,11.03
2017-11-13T11:38:56.470Z,11.13
2017-11-13T11:41:23.910Z,10.70
2017-11-13T11:43:51.307Z,11.07
2017-11-13T11:46:18.709Z,11.97
2017-11-13T11:48:46.105Z,10.50
2017-11-13T11:51:13.504Z,10.50
2017-11-13T11:53:40.900Z,10.50
2017-11-13T11:56:13.952Z,9.60
2017-11-13T11:58:41.352Z,10.63
2017-11-13T12:01:08.752Z,9.70
2017-11-13T12:03:36.148Z,10.30
2017-11-13T12:06:03.548Z,9.80
2017-11-13T12:08:30.935Z,9.80
2017-11-13T12:10:58.330Z,9.93
2017-11-13T12:13:25.731Z,9.97
2017-11-13T12:15:53.144Z,10.40
2017-11-13T12:18:20.535Z,9.97
2017-11-13T12:20:47.928Z,9.87
2017-11-13T12:23:15.332Z,10.70
2017-11-13T12:25:42.716Z,9.87
2017-11-13T12:28:10.112Z,9.37
2017-11-13T12:30:37.506Z,9.80
2017-11-13T12:33:04.909Z,9.33
2017-11-13T12:35:32.296Z,9.03
2017-11-13T12:37:59.712Z,10.60
2017-11-13T12:40:32.931Z,10.20
2017-11-13T12:43:00.323Z,9.17
2017-11-13T12:45:27.715Z,10.63
2017-11-13T12:47:55.122Z,8.70
2017-11-13T12:50:22.500Z,7.73
2017-11-13T12:52:49.887Z,9.43
2017-11-13T12:55:17.291Z,8.57
2017-11-13T12:57:44.682Z,9.77
2017-11-13T13:00:12.083Z,9.20
2017-11-13T13:02:39.479Z,10.93
2017-11-13T13:05:06.873Z,9.90
2017-11-13T13:07:34.267Z,10.93
2017-11-13T13:10:01.663Z,10.43
2017-11-13T13:12:29.065Z,10.00
2017-11-13T13:14:56.463Z,11.53
2017-11-13T13:17:23.867Z,10.20
2017-11-13T13:19:51.270Z,11.50
2017-11-13T13:22:18.671Z,11.77
2017-11-13T13:24:46.064Z,12.80
2017-11-13T13:27:13.472Z,12.70
2017-11-13T13:29:40.871Z,12.40
2017-11-13T13:32:08.267Z,12.63
2017-11-13T13:34:35.683Z,12.00
2017-11-13T13:37:03.071Z,13.43
2017-11-13T13:39:30.471Z,12.70
2017-11-13T13:41:57.863Z,11.10
2017-11-13T13:44:25.264Z,12.53
2017-11-13T13:46:52.659Z,11.43
2017-11-13T13:49:20.063Z,12.70
2017-11-13T13:51:47.461Z,11.47
2017-11-13T13:54:14.860Z,12.70
2017-11-13T13:56:42.274Z,12.07
2017-11-13T13:59:09.657Z,11.60
2017-11-13T14:01:37.059Z,11.60
2017-11-13T14:04:04.464Z,10.70
2017-11-13T14:06:31.855Z,10.87
2017-11-13T14:08:59.264Z,10.77
2017-11-13T14:11:26.664Z,10.17
2017-11-13T14:13:54.059Z,10.03
2017-11-13T14:16:21.454Z,11.10
2017-11-13T14:18:48.855Z,10.60
2017-11-13T14:21:16.255Z,10.80
2017-11-13T14:23:43.647Z,10.00
2017-11-13T14:26:11.044Z,9.80
2017-11-13T14:28:38.438Z,9.93
2017-11-13T14:31:05.861Z,9.60
2017-11-13T14:33:33.252Z,10.73
2017-11-13T14:36:00.641Z,9.90
2017-11-13T14:38:28.046Z,10.00
2017-11-13T14:40:55.432Z,10.30
2017-11-13T14:43:22.832Z,10.40
2017-11-13T14:45:50.228Z,10.00
2017-11-13T14:48:17.631Z,9.40
2017-11-13T14:50:45.035Z,11.43
2017-11-13T14:53:12.424Z,10.23
2017-11-13T14:55:39.808Z,8.70
2017-11-13T14:58:07.200Z,9.93
2017-11-13T15:00:34.608Z,10.30
2017-11-13T15:03:02.037Z,10.43
2017-11-13T15:05:29.725Z,11.30
2017-11-13T15:07:57.120Z,10.63
2017-11-13T15:10:24.532Z,10.27
2017-11-13T15:12:51.914Z,9.73
2017-11-13T15:15:19.304Z,9.27
2017-11-13T15:17:46.711Z,9.30
2017-11-13T15:20:14.109Z,10.40
2017-11-13T15:22:41.525Z,10.00
2017-11-13T15:25:08.929Z,10.37
2017-11-13T15:27:36.321Z,9.80
2017-11-13T15:30:03.729Z,10.93
2017-11-13T15:32:31.118Z,9.80
2017-11-13T15:34:58.515Z,10.10
2017-11-13T15:37:25.938Z,10.30
2017-11-13T15:39:53.340Z,10.10
2017-11-13T15:42:21.683Z,9.77
2017-11-13T15:44:49.080Z,11.20
2017-11-13T15:47:16.506Z,11.70
2017-11-13T15:49:43.894Z,10.70
2017-11-13T15:52:11.870Z,11.20
2017-11-13T15:54:39.239Z,9.43
2017-11-13T15:57:06.640Z,10.30
2017-11-13T15:59:34.031Z,10.43
2017-11-13T16:02:01.426Z,10.40
2017-11-13T16:04:28.819Z,10.60
2017-11-13T16:06:56.208Z,9.87
2017-11-13T16:09:23.595Z,10.87
2017-11-13T16:11:51.006Z,10.70
2017-11-13T16:14:24.191Z,10.20
2017-11-13T16:16:51.591Z,11.70
2017-11-13T16:19:18.982Z,10.83
2017-11-13T16:21:46.369Z,10.37
2017-11-13T16:24:13.764Z,9.10
2017-11-13T16:26:41.154Z,9.77
2017-11-13T16:29:08.556Z,8.60
2017-11-13T16:31:35.924Z,9.00
2017-11-13T16:34:03.321Z,9.00
2017-11-13T16:36:30.711Z,9.13
2017-11-13T16:38:58.108Z,7.90
2017-11-13T16:41:25.501Z,8.33
2017-11-13T16:43:52.879Z,8.47
2017-11-13T16:46:20.268Z,8.30
2017-11-13T16:48:47.655Z,9.20
2017-11-13T16:51:15.047Z,8.10
2017-11-13T16:53:42.444Z,8.00
2017-11-13T16:56:09.839Z,7.70
2017-11-13T16:58:37.227Z,7.57
2017-11-13T17:01:04.628Z,9.73
2017-11-13T17:03:32.015Z,8.80
2017-11-13T17:05:59.408Z,10.97
2017-11-13T17:08:26.806Z,9.67
2017-11-13T17:10:54.192Z,9.20
2017-11-13T17:13:21.587Z,10.30
2017-11-13T17:15:48.980Z,10.13
2017-11-13T17:18:16.371Z,11.50
2017-11-13T17:20:43.763Z,12.90
2017-11-13T17:23:11.170Z,12.20
2017-11-13T17:25:38.555Z,10.03
2017-11-13T17:28:05.945Z,8.60
2017-11-13T17:30:33.341Z,9.30
2017-11-13T17:33:00.736Z,9.57
2017-11-13T17:35:28.127Z,9.97
2017-11-13T17:37:55.511Z,9.03
2017-11-13T17:40:22.899Z,9.30
2017-11-13T17:42:50.284Z,9.10
2017-11-13T17:45:17.675Z,9.60
2017-11-13T17:47:45.083Z,8.47
2017-11-13T17:50:12.475Z,9.23
2017-11-13T17:52:39.863Z,9.10
2017-11-13T17:55:07.251Z,9.13
2017-11-13T17:57:34.639Z,9.10
2017-11-13T18:00:02.019Z,11.67
2017-11-13T18:02:29.423Z,12.13
2017-11-13T18:04:56.807Z,10.30
2017-11-13T18:07:24.219Z,10.57
2017-11-13T18:09:51.609Z,11.27
2017-11-13T18:12:18.995Z,9.27
2017-11-13T18:14:46.391Z,8.77
2017-11-13T18:17:13.778Z,10.67
2017-11-13T18:19:41.175Z,9.20
2017-11-13T18:22:08.554Z,9.87
2017-11-13T18:24:35.960Z,9.37
2017-11-13T18:27:03.346Z,8.47
2017-11-13T18:29:30.742Z,8.50
2017-11-13T18:31:58.135Z,9.10
2017-11-13T18:34:25.528Z,9.93
2017-11-13T18:36:52.921Z,9.97
2017-11-13T18:39:20.309Z,9.47
2017-11-13T18:41:47.719Z,8.93
2017-11-13T18:44:16.163Z,8.90
2017-11-13T18:46:43.562Z,8.90
2017-11-13T18:49:10.943Z,9.43
2017-11-13T18:51:39.105Z,9.97
2017-11-13T18:54:06.520Z,9.07
2017-11-13T18:56:33.903Z,9.90
2017-11-13T18:59:01.319Z,9.40
2017-11-13T19:01:36.420Z,9.07
2017-11-13T19:04:03.869Z,8.73
2017-11-13T19:06:32.094Z,9.63
2017-11-13T19:08:59.518Z,9.77
2017-11-13T19:11:26.897Z,9.77
2017-11-13T19:13:55.054Z,11.13
2017-11-13T19:16:22.451Z,10.73
2017-11-13T19:18:50.656Z,11.50
2017-11-13T19:21:18.097Z,10.70
2017-11-13T19:23:45.516Z,11.37
2017-11-13T19:26:13.026Z,11.23
2017-11-13T19:28:40.416Z,11.57
2017-11-13T19:31:20.690Z,11.30
2017-11-13T19:33:48.099Z,11.93
2017-11-13T19:36:15.493Z,11.50
2017-11-13T19:38:43.834Z,10.77
2017-11-13T19:41:11.240Z,10.53
2017-11-13T19:43:38.663Z,12.13
2017-11-13T19:46:06.055Z,11.17
2017-11-13T19:48:33.473Z,10.93
2017-11-13T19:51:00.869Z,11.37
2017-11-13T19:53:28.255Z,11.57
2017-11-13T19:55:55.654Z,11.33
2017-11-13T19:58:23.051Z,12.30
2017-11-13T20:00:50.496Z,12.80
2017-11-13T20:03:17.889Z,11.97
2017-11-13T20:05:45.312Z,13.13
2017-11-13T20:08:12.699Z,12.97
2017-11-13T20:10:40.100Z,13.60
2017-11-13T20:13:07.496Z,12.20
2017-11-13T20:15:35.798Z,13.80
2017-11-13T20:18:03.198Z,11.73
2017-11-13T20:20:30.598Z,13.03
2017-11-13T20:22:58.015Z,12.20
2017-11-13T20:25:25.407Z,12.43
2017-11-13T20:27:52.795Z,13.00
2017-11-13T20:30:20.204Z,12.37
2017-11-13T20:32:47.628Z,12.90
2017-11-13T20:35:15.024Z,15.00
2017-11-13T20:37:42.416Z,14.37
2017-11-13T20:40:09.833Z,13.77
2017-11-13T20:42:37.218Z,12.20
2017-11-13T20:45:04.613Z,13.60
2017-11-13T20:47:32.026Z,13.63
2017-11-13T20:49:59.418Z,13.80
2017-11-13T20:52:26.807Z,13.10
2017-11-13T20:54:54.202Z,14.43
2017-11-13T20:57:21.597Z,14.53
2017-11-13T20:59:49.002Z,14.60
2017-11-13T21:02:16.396Z,15.10
2017-11-13T21:04:43.802Z,14.20
2017-11-13T21:07:11.195Z,13.20
2017-11-13T21:09:38.594Z,14.13
2017-11-13T21:12:05.988Z,13.35
2017-11-13T21:14:33.379Z,14.40
2017-11-13T21:17:00.780Z,14.33
2017-11-13T21:19:28.170Z,13.23
2017-11-13T21:21:59.267Z,14.73
2017-11-13T21:24:26.670Z,14.73
2017-11-13T21:26:54.072Z,13.80
2017-11-13T21:29:21.476Z,14.70
2017-11-13T21:31:48.859Z,14.97
2017-11-13T21:34:16.267Z,16.02
2017-11-13T21:36:43.664Z,14.70
2017-11-13T21:39:11.079Z,15.13
2017-11-13T21:41:38.472Z,16.70
2017-11-13T21:44:05.859Z,15.53
2017-11-13T21:46:33.258Z,15.33
2017-11-13T21:49:00.658Z,16.03
2017-11-13T21:51:28.064Z,16.65
2017-11-13T21:53:55.466Z,14.70
2017-11-13T21:56:22.880Z,16.43
2017-11-13T21:58:50.287Z,15.85
2017-11-13T22:01:17.680Z,15.97
2017-11-13T22:03:45.084Z,16.40
2017-11-13T22:06:15.524Z,16.60
2017-11-13T22:08:42.928Z,17.37
2017-11-13T22:11:10.307Z,16.87
2017-11-13T22:13:37.735Z,16.67
2017-11-13T22:16:05.131Z,16.83
2017-11-13T22:18:32.527Z,16.53
2017-11-13T22:20:59.940Z,17.10
2017-11-13T22:23:27.352Z,16.50
2017-11-13T22:25:54.751Z,15.70
2017-11-13T22:28:22.152Z,15.38
2017-11-13T22:30:49.580Z,15.80
2017-11-13T22:33:16.981Z,15.45
2017-11-13T22:35:44.381Z,16.20
2017-11-13T22:38:11.795Z,15.57
2017-11-13T22:40:39.186Z,17.33
2017-11-13T22:43:06.607Z,16.90
2017-11-13T22:45:33.995Z,18.87
2017-11-13T22:48:01.415Z,18.85
2017-11-13T22:50:28.814Z,19.48
2017-11-13T22:52:56.212Z,18.62
2017-11-13T22:55:23.619Z,17.23
2017-11-13T22:57:51.034Z,18.17
2017-11-13T23:00:18.439Z,17.25
2017-11-13T23:02:45.844Z,16.77
2017-11-13T23:05:13.256Z,17.45
2017-11-13T23:07:40.655Z,17.60
2017-11-13T23:10:08.121Z,17.77
2017-11-13T23:12:35.514Z,16.62
2017-11-13T23:15:02.915Z,17.70
2017-11-13T23:17:30.318Z,17.62
2017-11-13T23:19:57.733Z,17.52
2017-11-13T23:22:25.137Z,16.85
2017-11-13T23:24:52.536Z,16.73
2017-11-13T23:27:19.924Z,16.20
2017-11-13T23:29:47.353Z,16.70
2017-11-13T23:32:14.756Z,17.00
2017-11-13T23:34:42.160Z,16.50
2017-11-13T23:37:09.558Z,16.73
2017-11-13T23:39:36.967Z,16.12
2017-11-13T23:42:04.824Z,17.00
2017-11-13T23:44:32.225Z,17.20
2017-11-13T23:46:59.630Z,16.25
2017-11-13T23:49:27.040Z,16.27
2017-11-13T23:51:54.456Z,15.60
2017-11-13T23:54:33.607Z,16.52
2017-11-13T23:57:01.011Z,15.57
2017-11-13T23:59:28.411Z,14.95
